Time;durP1;ratioP1;P1;durP2;ratioP2;P2;SDS_P1;SDS_P2;PMS_P1;PMS_P2;Temp;Humidity;BMP_temperature;BMP_pressure;BME280_temperature;BME280_humidity;BME280_pressure;Samples;Min_cycle;Max_cycle;Signal;HPM_P1;HPM_P2
2021/10/02 00:35:27;;;;;;;6.47;5.57;;;15.40;99.90;;;;;;5006860;28;20438;-71
2021/10/02 00:38:08;;;;;;;6.50;5.60;;;15.40;99.90;;;;;;5005506;28;21058;-71
2021/10/02 00:46:04;;;;;;;8.70;5.67;;;15.20;99.90;;;;;;5007253;28;20462;-71
2021/10/02 00:48:30;;;;;;;10.13;5.60;;;15.10;99.90;;;;;;5005156;28;20558;-71
2021/10/02 00:50:59;;;;;;;7.20;5.40;;;15.20;99.90;;;;;;5007189;28;20463;-71
2021/10/02 00:53:25;;;;;;;7.23;4.77;;;15.10;99.90;;;;;;5007199;28;20425;-71
2021/10/02 00:55:51;;;;;;;5.47;4.80;;;15.20;99.90;;;;;;5005480;28;20448;-71
2021/10/02 00:58:17;;;;;;;6.30;5.40;;;15.20;99.90;;;;;;5003815;28;20502;-71
2021/10/02 01:00:46;;;;;;;9.00;5.37;;;15.30;99.90;;;;;;5006507;28;20193;-71
2021/10/02 01:03:30;;;;;;;7.67;5.10;;;15.40;99.90;;;;;;5007828;28;20454;-72
2021/10/02 01:06:21;;;;;;;5.83;5.13;;;15.40;99.90;;;;;;5004697;28;20434;-71
2021/10/02 01:08:56;;;;;;;9.07;5.60;;;15.30;99.90;;;;;;5004734;28;20804;-71
2021/10/02 01:11:43;;;;;;;8.43;5.50;;;15.30;99.90;;;;;;5008476;28;20491;-71
2021/10/02 01:14:09;;;;;;;5.77;4.80;;;15.30;99.90;;;;;;5006664;28;20420;-71
2021/10/02 01:16:47;;;;;;;5.53;5.03;;;15.20;99.90;;;;;;5004942;28;20983;-70
2021/10/02 01:19:47;;;;;;;7.03;4.93;;;15.30;99.90;;;;;;5009527;28;20192;-71
2021/10/02 01:22:19;;;;;;;7.50;4.97;;;15.30;99.90;;;;;;5006444;28;20478;-71
2021/10/02 01:25:06;;;;;;;5.47;4.87;;;15.20;99.90;;;;;;5003724;28;20927;-71
2021/10/02 01:27:52;;;;;;;6.20;4.77;;;15.20;99.90;;;;;;5005098;28;20468;-71
2021/10/02 01:35:54;;;;;;;8.17;5.37;;;15.20;99.90;;;;;;5006359;28;20431;-71
2021/10/02 01:49:22;;;;;;;5.27;4.77;;;15.60;99.90;;;;;;5006866;28;20443;-71
2021/10/02 01:51:50;;;;;;;4.63;4.00;;;15.60;99.90;;;;;;5003831;28;20522;-71
2021/10/02 01:54:16;;;;;;;6.00;4.80;;;15.60;99.90;;;;;;5004349;28;20516;-71
2021/10/02 01:56:45;;;;;;;6.70;4.30;;;15.70;99.90;;;;;;5007947;28;20527;-70
2021/10/02 01:59:13;;;;;;;6.77;4.10;;;15.40;99.90;;;;;;5003779;28;20800;-71
2021/10/02 02:01:43;;;;;;;8.27;4.07;;;15.50;99.90;;;;;;5005854;28;20490;-71
2021/10/02 02:04:10;;;;;;;4.67;4.20;;;15.40;99.90;;;;;;5006645;28;20420;-70
2021/10/02 02:06:36;;;;;;;5.17;3.80;;;15.50;99.90;;;;;;5004420;28;20476;-71
2021/10/02 02:09:04;;;;;;;6.97;4.50;;;15.40;99.90;;;;;;5007064;28;20996;-71
2021/10/02 02:11:30;;;;;;;7.20;4.10;;;15.40;99.90;;;;;;5004736;28;20459;-71
2021/10/02 02:13:58;;;;;;;6.73;4.07;;;15.40;99.90;;;;;;5004922;28;20429;-71
2021/10/02 02:16:24;;;;;;;4.30;3.90;;;15.30;99.90;;;;;;5005757;28;20826;-71
2021/10/02 02:18:51;;;;;;;6.50;4.07;;;15.30;99.90;;;;;;5004336;28;20417;-71
2021/10/02 02:21:18;;;;;;;4.50;4.10;;;15.40;99.90;;;;;;5006109;28;20855;-71
2021/10/02 02:23:44;;;;;;;5.20;4.13;;;15.40;99.90;;;;;;5003741;28;20444;-71
2021/10/02 02:26:09;;;;;;;5.40;3.90;;;15.30;99.90;;;;;;5003156;28;20441;-71
2021/10/02 02:28:37;;;;;;;4.60;3.87;;;15.40;99.90;;;;;;5005451;28;20280;-71
2021/10/02 02:31:05;;;;;;;6.07;4.70;;;15.40;99.90;;;;;;5008382;28;20472;-71
2021/10/02 02:33:31;;;;;;;6.00;3.57;;;15.40;99.90;;;;;;5002641;28;20430;-71
2021/10/02 02:35:57;;;;;;;5.00;4.50;;;15.40;99.90;;;;;;5005562;28;20811;-71
2021/10/02 02:38:23;;;;;;;7.83;3.50;;;15.40;99.90;;;;;;5002187;28;20453;-71
2021/10/02 02:40:50;;;;;;;6.90;4.13;;;15.40;99.90;;;;;;5001833;28;20195;-71
2021/10/02 02:43:17;;;;;;;6.10;3.80;;;15.40;99.90;;;;;;5007524;28;20435;-71
2021/10/02 02:45:52;;;;;;;3.77;3.40;;;15.50;99.90;;;;;;5001161;28;20435;-71
2021/10/02 02:48:27;;;;;;;4.40;3.83;;;15.50;99.90;;;;;;5003699;28;20485;-71
2021/10/02 02:50:56;;;;;;;5.23;2.80;;;15.50;99.90;;;;;;5006048;28;20471;-71
2021/10/02 02:53:29;;;;;;;4.10;3.57;;;15.50;99.90;;;;;;5001099;28;20440;-71
2021/10/02 02:56:01;;;;;;;4.57;3.47;;;15.40;99.90;;;;;;5003718;28;20674;-71
2021/10/02 02:58:30;;;;;;;4.23;3.47;;;15.40;99.90;;;;;;5007413;28;20455;-71
2021/10/02 03:01:00;;;;;;;5.47;3.77;;;15.30;99.90;;;;;;5006801;28;20460;-71
2021/10/02 03:03:28;;;;;;;4.67;4.17;;;15.30;99.90;;;;;;5004502;28;20440;-70
2021/10/02 03:06:01;;;;;;;4.50;3.53;;;15.30;99.90;;;;;;5005465;28;20863;-71
2021/10/02 03:08:33;;;;;;;3.90;3.33;;;15.40;99.90;;;;;;5003714;28;20460;-71
2021/10/02 03:11:01;;;;;;;3.43;3.13;;;15.40;99.90;;;;;;5002791;28;20476;-71
2021/10/02 03:13:29;;;;;;;3.30;3.00;;;15.40;99.90;;;;;;5002075;28;20870;-71
2021/10/02 03:15:56;;;;;;;4.03;3.43;;;15.30;99.90;;;;;;5000360;28;20435;-71
2021/10/02 03:18:25;;;;;;;4.30;3.90;;;15.20;99.90;;;;;;5005444;28;20482;-71
2021/10/02 03:20:53;;;;;;;3.27;2.93;;;15.40;99.90;;;;;;5004671;28;20539;-71
2021/10/02 03:23:22;;;;;;;4.50;3.50;;;15.40;99.90;;;;;;5002521;28;20428;-71
2021/10/02 03:25:48;;;;;;;3.93;3.50;;;15.40;99.90;;;;;;5004309;28;20464;-71
2021/10/02 03:28:14;;;;;;;5.03;3.50;;;15.40;99.90;;;;;;5003577;28;20982;-71
2021/10/02 03:30:40;;;;;;;4.50;3.40;;;15.30;99.90;;;;;;5003021;28;20771;-71
2021/10/02 03:33:06;;;;;;;5.50;3.30;;;15.20;99.90;;;;;;5006397;28;20431;-70
2021/10/02 03:35:32;;;;;;;4.70;3.23;;;15.10;99.90;;;;;;5001659;28;20424;-71
2021/10/02 03:37:58;;;;;;;6.20;4.00;;;15.10;99.90;;;;;;5004142;28;20827;-71
2021/10/02 03:40:24;;;;;;;5.47;3.80;;;15.20;99.90;;;;;;5005331;28;20611;-71
2021/10/02 03:42:55;;;;;;;7.23;3.67;;;15.10;99.90;;;;;;5003388;28;20412;-71
2021/10/02 03:45:25;;;;;;;5.00;3.83;;;15.10;99.90;;;;;;5002789;28;20819;-71
2021/10/02 03:47:50;;;;;;;4.00;3.00;;;15.00;99.90;;;;;;5007961;28;20874;-71
2021/10/02 03:50:16;;;;;;;4.53;3.67;;;15.00;99.90;;;;;;5004012;28;20412;-71
2021/10/02 03:52:43;;;;;;;8.00;3.43;;;15.10;99.90;;;;;;5001915;28;20758;-70
2021/10/02 03:55:11;;;;;;;5.30;3.53;;;15.20;99.90;;;;;;4987805;28;20196;-71
2021/10/02 03:57:37;;;;;;;3.57;2.80;;;15.10;99.90;;;;;;5002653;28;20471;-71
2021/10/02 04:00:05;;;;;;;4.80;3.00;;;15.30;99.90;;;;;;5004748;28;20476;-71
2021/10/02 04:02:31;;;;;;;4.50;3.20;;;15.40;99.90;;;;;;5005894;28;20447;-70
2021/10/02 04:04:57;;;;;;;4.90;3.63;;;15.50;99.90;;;;;;5003843;28;20424;-71
2021/10/02 04:07:22;;;;;;;3.80;3.27;;;15.40;99.90;;;;;;5009307;28;20275;-70
2021/10/02 04:09:48;;;;;;;4.50;3.13;;;15.20;99.90;;;;;;5009010;28;20212;-71
2021/10/02 04:12:14;;;;;;;4.90;3.20;;;15.10;99.90;;;;;;5006968;28;20210;-71
2021/10/02 04:14:39;;;;;;;4.23;3.17;;;15.10;99.90;;;;;;5010093;28;20216;-71
2021/10/02 04:17:05;;;;;;;4.13;3.33;;;15.20;99.90;;;;;;5005230;28;20212;-71
2021/10/02 04:19:31;;;;;;;6.87;3.77;;;15.10;99.90;;;;;;5006793;28;20189;-71
2021/10/02 04:21:56;;;;;;;7.93;3.33;;;15.00;99.90;;;;;;5008994;28;20185;-71
2021/10/02 04:24:24;;;;;;;6.17;3.33;;;15.10;99.90;;;;;;5008619;28;20684;-71
2021/10/02 04:26:50;;;;;;;4.90;3.33;;;15.00;99.90;;;;;;5007128;28;20205;-71
2021/10/02 04:29:15;;;;;;;5.37;3.97;;;15.00;99.90;;;;;;5008135;28;20570;-71
2021/10/02 04:31:41;;;;;;;5.03;3.37;;;15.00;99.90;;;;;;5004081;28;20289;-71
2021/10/02 04:34:07;;;;;;;4.93;3.27;;;15.10;99.90;;;;;;5008446;28;20736;-71
2021/10/02 04:36:33;;;;;;;4.23;3.83;;;15.20;99.90;;;;;;4990078;28;20197;-71
2021/10/02 04:38:59;;;;;;;6.70;3.63;;;15.20;99.90;;;;;;5005716;28;20192;-71
2021/10/02 04:41:25;;;;;;;4.77;3.50;;;15.10;99.90;;;;;;5007668;28;20443;-71
2021/10/02 04:43:51;;;;;;;3.40;2.90;;;15.10;99.90;;;;;;5004298;28;21082;-71
2021/10/02 04:46:18;;;;;;;7.03;3.00;;;15.10;99.90;;;;;;5006356;28;20189;-71
2021/10/02 04:48:44;;;;;;;4.00;3.40;;;15.00;99.90;;;;;;5006768;28;20220;-71
2021/10/02 04:51:10;;;;;;;3.73;2.97;;;15.20;99.90;;;;;;5004750;28;20533;-71
2021/10/02 04:53:37;;;;;;;4.50;2.90;;;15.40;99.90;;;;;;5007911;28;20437;-71
2021/10/02 04:56:06;;;;;;;3.17;2.87;;;15.30;99.90;;;;;;5004762;28;20416;-71
2021/10/02 04:58:32;;;;;;;3.37;2.70;;;15.20;99.90;;;;;;5005968;28;20472;-71
2021/10/02 05:00:58;;;;;;;3.03;2.73;;;15.00;99.90;;;;;;5010558;28;20435;-71
2021/10/02 05:03:24;;;;;;;4.10;3.20;;;15.00;99.90;;;;;;5005833;28;20485;-71
2021/10/02 05:05:51;;;;;;;5.83;2.80;;;15.00;99.90;;;;;;5006913;28;20847;-71
2021/10/02 05:08:17;;;;;;;5.80;3.67;;;15.00;99.90;;;;;;5007279;28;20694;-71
2021/10/02 05:10:43;;;;;;;4.17;3.30;;;15.00;99.90;;;;;;5004633;28;20440;-71
2021/10/02 05:13:08;;;;;;;4.30;2.73;;;15.00;99.90;;;;;;5005995;28;20196;-71
2021/10/02 05:15:34;;;;;;;4.50;3.10;;;15.10;99.90;;;;;;5003839;28;20446;-71
2021/10/02 05:18:00;;;;;;;4.20;2.60;;;15.10;99.90;;;;;;5004468;28;20213;-71
2021/10/02 05:20:27;;;;;;;3.47;3.17;;;15.00;99.90;;;;;;5008993;28;20205;-71
2021/10/02 05:22:52;;;;;;;4.17;3.23;;;15.00;99.90;;;;;;5004722;28;21020;-71
2021/10/02 05:25:18;;;;;;;4.20;2.90;;;15.10;99.90;;;;;;5006251;28;20519;-71
2021/10/02 05:27:44;;;;;;;4.97;2.97;;;14.90;99.90;;;;;;5008245;28;20269;-71
2021/10/02 05:30:09;;;;;;;4.03;3.30;;;15.00;99.90;;;;;;5001141;28;20535;-71
2021/10/02 05:32:35;;;;;;;4.53;3.50;;;15.10;99.90;;;;;;5005195;28;20665;-71
2021/10/02 05:35:01;;;;;;;3.73;3.00;;;15.10;99.90;;;;;;5009622;28;20477;-71
2021/10/02 05:37:26;;;;;;;3.40;2.93;;;15.10;99.90;;;;;;5003536;28;20209;-71
2021/10/02 05:39:52;;;;;;;6.73;3.57;;;14.90;99.90;;;;;;5007065;28;20185;-71
2021/10/02 05:42:18;;;;;;;6.90;3.50;;;15.00;99.90;;;;;;5006434;28;20195;-71
2021/10/02 05:44:43;;;;;;;3.47;3.17;;;15.00;99.90;;;;;;5004730;28;20208;-71
2021/10/02 05:47:09;;;;;;;5.27;2.90;;;15.10;99.90;;;;;;5007352;28;20205;-71
2021/10/02 05:49:35;;;;;;;4.70;3.40;;;15.00;99.90;;;;;;5006790;28;20268;-71
2021/10/02 05:52:02;;;;;;;6.37;3.40;;;14.90;99.90;;;;;;5005456;28;20741;-71
2021/10/02 05:54:27;;;;;;;9.67;3.30;;;14.80;99.90;;;;;;5006972;28;20188;-71
2021/10/02 05:56:53;;;;;;;4.90;3.60;;;15.00;99.90;;;;;;5003147;28;20444;-71
2021/10/02 05:59:18;;;;;;;3.90;3.50;;;15.10;99.90;;;;;;5003264;28;20197;-71
2021/10/02 06:01:44;;;;;;;3.57;3.13;;;15.10;99.90;;;;;;4989501;28;20185;-70
2021/10/02 06:04:10;;;;;;;5.77;5.13;;;15.20;99.90;;;;;;5004182;28;20269;-70
2021/10/02 06:06:36;;;;;;;6.90;4.57;;;15.10;99.90;;;;;;5007165;28;20258;-71
2021/10/02 06:09:01;;;;;;;6.03;4.40;;;15.20;99.90;;;;;;5005708;28;20201;-71
2021/10/02 06:11:27;;;;;;;10.60;4.00;;;15.20;99.90;;;;;;5002612;28;20266;-71
2021/10/02 06:13:53;;;;;;;10.93;4.60;;;15.30;99.90;;;;;;5007803;28;20197;-71
2021/10/02 06:16:19;;;;;;;6.80;4.53;;;15.40;99.90;;;;;;5003568;28;20173;-71
2021/10/02 06:18:45;;;;;;;5.20;3.73;;;15.50;99.90;;;;;;5002786;28;20225;-71
2021/10/02 06:21:14;;;;;;;5.60;3.80;;;15.40;99.90;;;;;;5005172;28;20454;-71
2021/10/02 06:23:41;;;;;;;5.27;4.10;;;15.40;99.90;;;;;;5004093;28;20778;-71
2021/10/02 06:26:07;;;;;;;6.30;3.77;;;15.50;99.90;;;;;;5002262;28;20482;-71
2021/10/02 06:28:34;;;;;;;10.40;4.37;;;15.40;99.90;;;;;;5003938;28;20480;-71
2021/10/02 06:31:00;;;;;;;4.27;3.30;;;15.50;99.90;;;;;;5003892;28;20503;-71
2021/10/02 06:33:26;;;;;;;4.53;3.67;;;15.50;99.90;;;;;;5004873;28;20979;-71
2021/10/02 06:35:52;;;;;;;7.13;4.30;;;15.60;99.90;;;;;;5003817;28;20943;-71
2021/10/02 06:38:17;;;;;;;6.63;4.77;;;15.60;99.90;;;;;;5004183;28;20451;-71
2021/10/02 06:40:44;;;;;;;8.57;5.50;;;15.60;99.90;;;;;;5006461;28;20197;-71
2021/10/02 06:43:11;;;;;;;7.00;5.50;;;15.60;99.90;;;;;;5004219;28;20660;-71
2021/10/02 06:45:37;;;;;;;6.90;5.07;;;15.50;99.90;;;;;;5005245;28;20429;-71
2021/10/02 06:48:03;;;;;;;4.00;3.60;;;15.60;99.90;;;;;;5006280;28;20459;-71
2021/10/02 06:50:29;;;;;;;4.57;4.03;;;15.60;99.90;;;;;;5003082;28;20454;-71
2021/10/02 06:52:55;;;;;;;5.90;4.60;;;15.60;99.90;;;;;;5004569;28;20474;-71
2021/10/02 06:55:22;;;;;;;4.77;4.30;;;15.60;99.90;;;;;;5004198;28;20429;-71
2021/10/02 06:57:47;;;;;;;5.77;4.20;;;15.70;99.90;;;;;;5006055;28;20586;-71
2021/10/02 07:00:13;;;;;;;4.33;3.90;;;15.60;99.90;;;;;;5005116;28;20460;-71
2021/10/02 07:02:44;;;;;;;7.67;4.57;;;15.70;99.90;;;;;;5004139;28;20580;-72
2021/10/02 07:05:12;;;;;;;5.10;3.80;;;15.70;99.90;;;;;;5000855;28;20560;-71
2021/10/02 07:07:40;;;;;;;4.47;4.07;;;15.80;99.90;;;;;;5005009;28;20556;-71
2021/10/02 07:10:07;;;;;;;6.60;4.67;;;16.00;99.90;;;;;;5003927;28;20921;-71
2021/10/02 07:12:35;;;;;;;10.33;5.70;;;16.10;99.90;;;;;;5003490;28;20461;-71
2021/10/02 07:15:01;;;;;;;6.20;4.63;;;16.30;99.90;;;;;;5004544;28;20763;-71
2021/10/02 07:17:26;;;;;;;8.00;5.87;;;16.40;99.90;;;;;;5001012;28;20633;-72
2021/10/02 07:19:52;;;;;;;8.93;5.90;;;16.50;99.90;;;;;;5004745;28;20531;-71
2021/10/02 07:22:18;;;;;;;4.87;3.90;;;16.50;99.90;;;;;;5004712;28;20185;-70
2021/10/02 07:24:43;;;;;;;6.13;4.47;;;16.40;99.90;;;;;;5002942;28;20193;-71
2021/10/02 07:27:09;;;;;;;5.23;4.00;;;16.40;99.90;;;;;;5006305;28;20221;-71
2021/10/02 07:29:35;;;;;;;4.60;4.20;;;16.40;99.90;;;;;;5002997;28;20197;-71
2021/10/02 07:32:00;;;;;;;5.90;4.20;;;16.50;99.90;;;;;;5005781;28;20225;-71
2021/10/02 07:34:27;;;;;;;5.30;4.33;;;16.50;99.90;;;;;;5002924;28;20774;-71
2021/10/02 07:36:53;;;;;;;5.10;4.00;;;16.60;99.90;;;;;;5000884;28;20226;-71
2021/10/02 07:39:18;;;;;;;6.43;4.07;;;16.50;99.90;;;;;;5001300;28;20931;-71
2021/10/02 07:41:47;;;;;;;5.90;4.40;;;16.50;99.90;;;;;;5005123;28;20189;-72
2021/10/02 07:44:14;;;;;;;7.23;4.80;;;16.50;99.90;;;;;;5001998;28;20652;-70
2021/10/02 07:46:47;;;;;;;9.00;7.07;;;16.50;99.90;;;;;;5004013;28;20447;-72
2021/10/02 07:49:13;;;;;;;9.00;6.47;;;16.70;99.90;;;;;;5001789;28;20524;-70
2021/10/02 07:51:39;;;;;;;5.30;4.53;;;16.70;99.90;;;;;;5001961;28;20479;-70
2021/10/02 07:54:06;;;;;;;6.30;4.57;;;16.70;99.90;;;;;;5007482;28;20949;-70
2021/10/02 07:56:36;;;;;;;6.00;4.60;;;16.70;99.90;;;;;;5002355;28;20471;-70
2021/10/02 07:59:05;;;;;;;5.60;4.87;;;16.70;99.90;;;;;;4988588;28;20436;-71
2021/10/02 08:01:31;;;;;;;5.80;4.90;;;16.60;99.90;;;;;;5005857;28;20447;-71
2021/10/02 08:03:57;;;;;;;6.50;4.77;;;16.60;99.90;;;;;;5000472;28;20448;-70
2021/10/02 08:06:24;;;;;;;6.57;4.43;;;16.60;99.90;;;;;;5002379;28;20510;-71
2021/10/02 08:08:51;;;;;;;11.20;4.80;;;16.60;99.90;;;;;;5003536;28;20252;-70
2021/10/02 08:11:17;;;;;;;5.17;4.67;;;16.60;99.90;;;;;;5002120;28;20885;-70
2021/10/02 08:13:42;;;;;;;7.67;4.77;;;16.70;99.90;;;;;;5006223;28;20439;-70
2021/10/02 08:16:09;;;;;;;8.10;6.70;;;16.70;99.90;;;;;;5002555;28;20562;-72
2021/10/02 08:18:38;;;;;;;6.30;5.00;;;16.80;99.90;;;;;;5002378;28;20905;-71
2021/10/02 08:21:06;;;;;;;5.83;4.53;;;16.70;99.90;;;;;;5006485;28;20447;-71
2021/10/02 08:23:35;;;;;;;12.10;5.63;;;16.70;99.90;;;;;;5003250;28;20597;-71
2021/10/02 08:26:02;;;;;;;5.87;4.90;;;16.60;99.90;;;;;;5001761;28;20534;-71
2021/10/02 08:28:30;;;;;;;6.47;4.17;;;16.60;99.90;;;;;;5005515;28;20982;-71
2021/10/02 08:30:58;;;;;;;5.00;4.33;;;16.60;99.90;;;;;;5000062;28;20875;-71
2021/10/02 08:33:24;;;;;;;7.47;5.73;;;16.60;99.90;;;;;;5001109;28;20439;-72
2021/10/02 08:35:50;;;;;;;6.40;5.17;;;16.70;99.90;;;;;;5006098;28;20428;-70
2021/10/02 08:38:15;;;;;;;6.10;5.20;;;16.70;99.90;;;;;;5003391;28;20295;-71
2021/10/02 08:40:43;;;;;;;5.90;3.80;;;16.70;99.90;;;;;;5002788;28;20204;-70
2021/10/02 08:43:13;;;;;;;5.33;4.83;;;16.70;99.90;;;;;;5005550;28;20189;-71
2021/10/02 08:45:39;;;;;;;4.90;4.40;;;16.80;99.90;;;;;;5002364;28;20570;-71
2021/10/02 08:48:06;;;;;;;4.47;4.07;;;16.80;99.90;;;;;;5003159;28;20526;-71
2021/10/02 08:50:31;;;;;;;6.33;4.27;;;16.80;99.90;;;;;;5006779;28;20924;-71
2021/10/02 08:52:57;;;;;;;5.77;3.60;;;16.90;99.90;;;;;;5006511;28;20483;-71
2021/10/02 08:55:24;;;;;;;4.77;4.17;;;16.90;99.90;;;;;;5006017;28;20339;-71
2021/10/02 08:57:51;;;;;;;4.63;3.90;;;17.00;99.90;;;;;;5007129;28;20210;-71
2021/10/02 09:00:22;;;;;;;4.50;3.23;;;17.00;99.90;;;;;;5007236;28;20515;-71
2021/10/02 09:02:50;;;;;;;4.50;3.83;;;17.10;99.90;;;;;;5007950;28;20451;-72
2021/10/02 09:05:17;;;;;;;4.90;3.97;;;17.10;99.90;;;;;;5007010;28;20957;-71
2021/10/02 09:07:43;;;;;;;4.50;4.10;;;17.10;99.90;;;;;;5006733;28;20472;-71
2021/10/02 09:10:11;;;;;;;8.10;3.87;;;17.20;99.90;;;;;;5007595;28;20444;-71
2021/10/02 09:12:40;;;;;;;4.07;3.67;;;17.20;99.90;;;;;;5002905;28;20472;-71
2021/10/02 09:15:07;;;;;;;5.33;3.57;;;17.30;99.90;;;;;;5007015;28;20439;-71
2021/10/02 09:17:33;;;;;;;5.03;3.80;;;17.30;99.90;;;;;;4989325;28;20875;-70
2021/10/02 09:20:00;;;;;;;4.00;3.23;;;17.40;99.90;;;;;;5004946;28;21015;-71
2021/10/02 09:22:28;;;;;;;5.00;3.83;;;17.50;99.90;;;;;;5008563;28;20460;-71
2021/10/02 09:24:57;;;;;;;4.23;3.77;;;17.50;99.90;;;;;;4989773;28;20507;-71
2021/10/02 09:27:26;;;;;;;3.90;3.30;;;17.60;99.90;;;;;;5006327;28;20990;-71
2021/10/02 09:29:56;;;;;;;4.70;3.57;;;17.60;99.90;;;;;;5005233;28;20444;-72
2021/10/02 09:32:28;;;;;;;5.33;3.60;;;17.70;99.90;;;;;;5005450;28;20848;-71
2021/10/02 09:34:57;;;;;;;4.23;3.50;;;17.70;99.90;;;;;;5002974;28;20451;-71
2021/10/02 09:37:27;;;;;;;4.20;3.80;;;17.80;99.90;;;;;;5008549;28;20444;-71
2021/10/02 09:39:59;;;;;;;6.60;3.10;;;17.90;99.90;;;;;;5003626;28;20581;-71
2021/10/02 09:42:29;;;;;;;3.50;3.13;;;17.90;99.90;;;;;;5002853;28;20448;-71
2021/10/02 09:45:11;;;;;;;4.70;3.20;;;18.10;99.90;;;;;;5007252;28;20428;-71
2021/10/02 09:47:39;;;;;;;3.80;3.37;;;18.10;99.90;;;;;;5005199;28;20847;-72
2021/10/02 09:50:20;;;;;;;4.50;3.40;;;18.20;99.90;;;;;;5006003;28;20435;-71
2021/10/02 09:52:54;;;;;;;8.50;6.87;;;18.20;99.90;;;;;;5006870;28;20501;-71
2021/10/02 09:55:25;;;;;;;7.80;3.20;;;18.30;99.90;;;;;;5005345;28;20930;-71
2021/10/02 09:57:56;;;;;;;4.00;3.60;;;18.30;99.90;;;;;;5003963;28;20460;-71
2021/10/02 10:00:29;;;;;;;4.70;3.63;;;18.30;99.90;;;;;;5008079;28;20423;-71
2021/10/02 10:02:56;;;;;;;5.27;3.40;;;18.50;99.90;;;;;;5004271;28;20440;-71
2021/10/02 10:05:31;;;;;;;4.53;3.40;;;18.60;99.90;;;;;;5006552;28;20523;-71
2021/10/02 10:08:00;;;;;;;3.17;2.87;;;18.70;99.90;;;;;;5004938;28;20475;-71
2021/10/02 10:10:27;;;;;;;3.83;2.93;;;18.80;99.90;;;;;;5003868;28;20966;-71
2021/10/02 10:12:53;;;;;;;6.60;2.93;;;18.90;99.90;;;;;;5004773;28;20485;-71
2021/10/02 10:15:44;;;;;;;4.73;3.20;;;18.90;99.90;;;;;;5005978;28;21006;-72
2021/10/02 10:18:16;;;;;;;3.10;2.80;;;19.00;99.90;;;;;;5003673;28;20452;-69
2021/10/02 10:20:49;;;;;;;2.97;2.70;;;19.10;99.90;;;;;;5005052;28;20443;-70
2021/10/02 10:23:24;;;;;;;4.60;3.23;;;19.20;99.90;;;;;;5004210;28;20513;-69
2021/10/02 10:25:54;;;;;;;3.20;2.90;;;19.20;99.90;;;;;;5003892;28;20439;-72
2021/10/02 10:28:24;;;;;;;4.00;2.93;;;19.30;99.90;;;;;;5006637;28;20436;-72
2021/10/02 10:30:50;;;;;;;3.37;3.07;;;19.40;99.90;;;;;;5004265;28;20954;-72
2021/10/02 10:33:18;;;;;;;4.47;2.97;;;19.50;99.90;;;;;;5005593;28;21021;-70
2021/10/02 10:35:50;;;;;;;4.90;3.17;;;19.60;99.90;;;;;;5004513;28;20939;-69
2021/10/02 10:38:25;;;;;;;3.40;3.10;;;19.70;99.90;;;;;;5004148;28;20811;-70
2021/10/02 10:40:52;;;;;;;3.20;2.90;;;19.80;99.90;;;;;;5003871;28;20420;-70
2021/10/02 10:43:19;;;;;;;3.60;3.07;;;19.90;99.90;;;;;;5007129;28;20503;-70
2021/10/02 10:45:45;;;;;;;4.93;3.17;;;20.00;99.90;;;;;;5003974;28;20412;-70
2021/10/02 10:48:11;;;;;;;4.90;3.67;;;20.20;99.90;;;;;;5002688;28;20464;-71
2021/10/02 10:50:41;;;;;;;3.90;3.40;;;20.20;99.90;;;;;;5005271;28;20435;-71
2021/10/02 10:53:08;;;;;;;5.00;3.30;;;20.30;99.90;;;;;;5003185;28;20440;-71
2021/10/02 10:55:52;;;;;;;4.43;3.40;;;20.40;99.90;;;;;;5003256;28;20437;-70
2021/10/02 10:58:27;;;;;;;3.53;3.23;;;20.40;99.90;;;;;;4987429;28;20444;-71
2021/10/02 11:00:53;;;;;;;4.43;3.13;;;20.40;99.90;;;;;;5004910;28;20943;-71
2021/10/02 11:03:45;;;;;;;6.07;4.10;;;20.50;99.90;;;;;;5003436;28;20837;-71
2021/10/02 11:06:19;;;;;;;3.57;3.27;;;20.50;99.90;;;;;;5004945;28;20424;-71
2021/10/02 11:08:53;;;;;;;3.43;3.10;;;20.50;99.90;;;;;;5000171;28;20444;-70
2021/10/02 11:11:51;;;;;;;4.97;3.70;;;20.50;99.90;;;;;;5000982;28;20503;-71
2021/10/02 11:14:19;;;;;;;4.10;3.40;;;20.60;99.90;;;;;;5006430;28;20768;-71
2021/10/02 11:16:49;;;;;;;4.70;3.60;;;20.60;99.90;;;;;;5004742;28;20447;-71
2021/10/02 11:19:38;;;;;;;5.40;3.10;;;20.50;99.90;;;;;;4985926;28;20444;-71
2021/10/02 11:22:53;;;;;;;3.70;3.40;;;20.60;99.90;;;;;;5005568;28;20428;-71
2021/10/02 11:25:24;;;;;;;7.70;3.37;;;20.70;99.90;;;;;;5004370;28;20543;-71
2021/10/02 11:27:51;;;;;;;7.27;3.53;;;20.80;99.90;;;;;;5005782;28;20440;-70
2021/10/02 11:30:20;;;;;;;4.03;3.13;;;20.80;99.90;;;;;;5002637;28;20475;-71
2021/10/02 11:32:46;;;;;;;4.90;3.63;;;20.90;99.90;;;;;;5004527;28;20468;-72
2021/10/02 11:35:12;;;;;;;4.10;3.17;;;21.00;99.90;;;;;;5005504;28;20420;-71
2021/10/02 11:37:51;;;;;;;3.83;3.43;;;21.10;99.90;;;;;;5001921;28;20811;-71
2021/10/02 11:40:47;;;;;;;3.70;2.80;;;21.10;99.90;;;;;;5005184;28;20304;-71
2021/10/02 11:43:13;;;;;;;6.03;3.40;;;21.20;99.90;;;;;;4994387;28;20455;-71
2021/10/02 11:45:44;;;;;;;3.03;2.80;;;21.20;99.90;;;;;;5003821;28;20428;-71
2021/10/02 11:48:14;;;;;;;4.60;3.60;;;21.40;99.90;;;;;;5004606;28;20223;-71
2021/10/02 11:50:41;;;;;;;3.53;3.23;;;21.90;99.90;;;;;;5004840;28;20451;-71
2021/10/02 11:53:06;;;;;;;4.13;3.23;;;22.30;99.90;;;;;;5002639;28;20538;-71
2021/10/02 11:55:40;;;;;;;3.40;3.10;;;22.30;99.90;;;;;;5005883;28;20511;-71
2021/10/02 11:58:11;;;;;;;3.50;3.00;;;22.50;99.90;;;;;;5002351;28;20589;-71
2021/10/02 12:00:44;;;;;;;4.17;2.80;;;22.70;99.90;;;;;;5001982;28;20537;-71
2021/10/02 12:03:29;;;;;;;3.73;3.20;;;22.70;99.90;;;;;;5004520;28;20447;-71
2021/10/02 12:05:57;;;;;;;3.07;2.77;;;22.50;99.90;;;;;;5001862;28;20419;-70
2021/10/02 12:08:24;;;;;;;4.97;3.40;;;22.50;99.90;;;;;;5003118;28;20471;-71
2021/10/02 12:11:09;;;;;;;3.30;3.00;;;22.90;99.90;;;;;;5004328;28;20443;-71
2021/10/02 12:14:02;;;;;;;4.40;3.30;;;23.30;99.90;;;;;;5005958;28;20813;-71
2021/10/02 12:16:30;;;;;;;3.60;3.30;;;23.30;99.90;;;;;;4997872;28;20445;-71
2021/10/02 12:19:09;;;;;;;2.90;2.60;;;23.20;99.90;;;;;;5006337;28;20774;-71
2021/10/02 12:21:55;;;;;;;3.80;3.50;;;23.00;99.90;;;;;;5003585;28;20856;-71
2021/10/02 12:24:28;;;;;;;3.60;3.20;;;23.40;99.90;;;;;;5004191;28;20538;-71
2021/10/02 12:26:58;;;;;;;3.87;3.43;;;24.40;99.90;;;;;;5008849;28;20460;-71
2021/10/02 12:29:29;;;;;;;3.00;2.70;;;24.70;99.90;;;;;;5009335;28;20448;-71
2021/10/02 12:32:06;;;;;;;4.80;3.30;;;25.60;99.90;;;;;;5006839;28;20505;-71
2021/10/02 12:34:42;;;;;;;4.27;3.87;;;26.20;99.20;;;;;;5006365;28;20447;-70
2021/10/02 12:37:13;;;;;;;3.53;2.67;;;26.40;97.20;;;;;;5007443;28;20451;-71
2021/10/02 12:39:43;;;;;;;3.80;3.10;;;27.00;96.50;;;;;;5005020;28;20672;-71
2021/10/02 12:42:12;;;;;;;3.57;2.60;;;27.10;94.50;;;;;;5008823;28;20813;-71
2021/10/02 12:44:40;;;;;;;4.00;3.53;;;27.20;93.70;;;;;;5006709;28;20538;-71
2021/10/02 12:47:09;;;;;;;3.40;3.10;;;27.30;93.00;;;;;;5002791;28;20451;-71
2021/10/02 12:49:42;;;;;;;3.30;3.00;;;27.60;92.30;;;;;;5008550;28;21002;-71
2021/10/02 12:52:08;;;;;;;3.80;3.40;;;27.50;90.30;;;;;;5006112;28;20534;-71
2021/10/02 12:54:34;;;;;;;3.57;3.27;;;27.00;90.70;;;;;;5004619;28;20417;-72
2021/10/02 12:57:07;;;;;;;4.67;3.60;;;26.60;89.80;;;;;;5005804;28;20855;-71
2021/10/02 12:59:44;;;;;;;3.37;3.07;;;26.30;91.10;;;;;;5007290;28;20497;-71
2021/10/02 13:02:11;;;;;;;7.87;3.50;;;26.40;91.20;;;;;;5005282;28;20428;-71
2021/10/02 13:04:37;;;;;;;4.43;3.10;;;26.20;91.10;;;;;;5005069;28;20554;-71
2021/10/02 13:07:04;;;;;;;2.83;2.53;;;26.10;91.70;;;;;;5008824;28;21035;-71
2021/10/02 13:09:29;;;;;;;3.17;2.87;;;26.00;91.80;;;;;;5004447;28;20610;-71
2021/10/02 13:12:05;;;;;;;3.70;3.23;;;26.10;91.60;;;;;;5008527;28;20456;-71
2021/10/02 13:14:34;;;;;;;3.77;3.00;;;26.20;91.10;;;;;;5007221;28;20338;-71
2021/10/02 13:17:10;;;;;;;3.43;2.93;;;26.10;91.20;;;;;;5004941;28;20871;-71
2021/10/02 13:19:36;;;;;;;2.97;2.77;;;25.90;91.70;;;;;;5005618;28;20486;-71
2021/10/02 13:22:18;;;;;;;3.73;3.33;;;25.90;92.10;;;;;;5008568;28;20421;-71
2021/10/02 13:25:14;;;;;;;4.00;3.60;;;25.90;91.80;;;;;;5000660;28;20433;-71
2021/10/02 13:27:44;;;;;;;4.63;3.23;;;26.10;91.40;;;;;;5003984;28;20678;-71
2021/10/02 13:30:27;;;;;;;3.57;3.20;;;26.10;91.70;;;;;;5012177;28;20847;-71
2021/10/02 13:33:13;;;;;;;3.80;3.40;;;26.20;91.80;;;;;;5003998;28;20469;-71
2021/10/02 13:35:45;;;;;;;3.90;3.50;;;26.50;92.70;;;;;;5004740;28;20439;-71
2021/10/02 13:38:11;;;;;;;3.23;2.83;;;26.40;91.30;;;;;;5007331;28;20483;-71
2021/10/02 13:40:53;;;;;;;3.30;3.00;;;26.40;91.70;;;;;;4988596;28;20943;-71
2021/10/02 13:43:20;;;;;;;3.40;2.97;;;26.60;90.50;;;;;;5004357;28;20197;-70
2021/10/02 13:45:48;;;;;;;4.17;3.20;;;26.80;90.20;;;;;;5007805;28;20459;-71
2021/10/02 13:48:16;;;;;;;4.33;3.40;;;26.60;90.00;;;;;;5002682;28;20494;-70
2021/10/02 13:50:44;;;;;;;7.30;3.57;;;26.50;90.50;;;;;;5002976;28;20436;-72
2021/10/02 13:53:12;;;;;;;4.73;3.73;;;26.40;90.60;;;;;;5008966;28;20525;-71